sensor_id;sensor_type;location;lat;lon;timestamp;P1;durP1;ratioP1;P2;durP2;ratioP2
46593;SDS011;35342;52.378;4.648;2023-03-03T00:00:50;7.18;;;5.15;;
46593;SDS011;35342;52.378;4.648;2023-03-03T00:03:18;11.65;;;5.97;;
46593;SDS011;35342;52.378;4.648;2023-03-03T00:05:47;11.07;;;6.15;;
46593;SDS011;35342;52.378;4.648;2023-03-03T00:08:14;11.05;;;5.45;;
46593;SDS011;35342;52.378;4.648;2023-03-03T00:10:40;11.00;;;7.03;;
46593;SDS011;35342;52.378;4.648;2023-03-03T00:13:27;11.50;;;6.22;;
46593;SDS011;35342;52.378;4.648;2023-03-03T00:15:53;10.88;;;4.93;;
46593;SDS011;35342;52.378;4.648;2023-03-03T00:18:32;10.00;;;6.65;;
46593;SDS011;35342;52.378;4.648;2023-03-03T00:21:02;8.38;;;5.57;;
46593;SDS011;35342;52.378;4.648;2023-03-03T00:23:37;9.70;;;5.93;;
46593;SDS011;35342;52.378;4.648;2023-03-03T00:29:00;9.02;;;5.55;;
46593;SDS011;35342;52.378;4.648;2023-03-03T00:31:44;6.82;;;5.20;;
46593;SDS011;35342;52.378;4.648;2023-03-03T00:36:42;6.95;;;4.07;;
46593;SDS011;35342;52.378;4.648;2023-03-03T00:39:19;8.73;;;4.38;;
46593;SDS011;35342;52.378;4.648;2023-03-03T00:42:01;5.35;;;4.30;;
46593;SDS011;35342;52.378;4.648;2023-03-03T00:52:32;11.05;;;4.35;;
46593;SDS011;35342;52.378;4.648;2023-03-03T00:55:01;5.88;;;4.60;;
46593;SDS011;35342;52.378;4.648;2023-03-03T00:57:28;5.80;;;3.95;;
46593;SDS011;35342;52.378;4.648;2023-03-03T00:59:54;7.43;;;4.45;;
46593;SDS011;35342;52.378;4.648;2023-03-03T01:02:20;4.68;;;3.25;;
46593;SDS011;35342;52.378;4.648;2023-03-03T01:04:48;8.40;;;3.75;;
46593;SDS011;35342;52.378;4.648;2023-03-03T01:07:16;6.72;;;3.58;;
46593;SDS011;35342;52.378;4.648;2023-03-03T01:09:42;5.25;;;3.28;;
46593;SDS011;35342;52.378;4.648;2023-03-03T01:12:09;4.65;;;3.42;;
46593;SDS011;35342;52.378;4.648;2023-03-03T01:14:36;5.18;;;3.72;;
46593;SDS011;35342;52.378;4.648;2023-03-03T01:17:03;6.43;;;3.28;;
46593;SDS011;35342;52.378;4.648;2023-03-03T01:19:29;6.43;;;3.03;;
46593;SDS011;35342;52.378;4.648;2023-03-03T01:21:55;5.80;;;3.67;;
46593;SDS011;35342;52.378;4.648;2023-03-03T01:24:21;6.05;;;3.28;;
46593;SDS011;35342;52.378;4.648;2023-03-03T01:26:47;5.35;;;2.70;;
46593;SDS011;35342;52.378;4.648;2023-03-03T01:29:13;5.25;;;3.38;;
46593;SDS011;35342;52.378;4.648;2023-03-03T01:31:39;4.88;;;3.15;;
46593;SDS011;35342;52.378;4.648;2023-03-03T01:34:04;6.97;;;2.97;;
46593;SDS011;35342;52.378;4.648;2023-03-03T01:36:31;7.32;;;2.72;;
46593;SDS011;35342;52.378;4.648;2023-03-03T01:38:58;5.35;;;2.65;;
46593;SDS011;35342;52.378;4.648;2023-03-03T01:41:28;4.25;;;2.83;;
46593;SDS011;35342;52.378;4.648;2023-03-03T01:43:58;7.30;;;3.08;;
46593;SDS011;35342;52.378;4.648;2023-03-03T01:46:32;3.78;;;2.33;;
46593;SDS011;35342;52.378;4.648;2023-03-03T01:49:06;6.20;;;2.78;;
46593;SDS011;35342;52.378;4.648;2023-03-03T01:51:47;3.78;;;2.42;;
46593;SDS011;35342;52.378;4.648;2023-03-03T01:54:29;4.93;;;2.55;;
46593;SDS011;35342;52.378;4.648;2023-03-03T01:57:13;8.88;;;2.53;;
46593;SDS011;35342;52.378;4.648;2023-03-03T01:59:51;3.50;;;2.00;;
46593;SDS011;35342;52.378;4.648;2023-03-03T02:02:19;7.35;;;2.63;;
46593;SDS011;35342;52.378;4.648;2023-03-03T02:04:46;6.05;;;2.47;;
46593;SDS011;35342;52.378;4.648;2023-03-03T02:07:13;4.40;;;2.05;;
46593;SDS011;35342;52.378;4.648;2023-03-03T02:09:43;3.00;;;2.08;;
46593;SDS011;35342;52.378;4.648;2023-03-03T02:12:35;3.53;;;2.00;;
46593;SDS011;35342;52.378;4.648;2023-03-03T02:15:50;5.30;;;1.90;;
46593;SDS011;35342;52.378;4.648;2023-03-03T02:17:56;7.57;;;2.45;;
46593;SDS011;35342;52.378;4.648;2023-03-03T02:20:29;3.35;;;1.35;;
46593;SDS011;35342;52.378;4.648;2023-03-03T02:23:33;1.98;;;1.70;;
46593;SDS011;35342;52.378;4.648;2023-03-03T02:26:31;2.92;;;1.45;;
46593;SDS011;35342;52.378;4.648;2023-03-03T02:29:04;2.30;;;1.50;;
46593;SDS011;35342;52.378;4.648;2023-03-03T02:31:30;4.97;;;1.67;;
46593;SDS011;35342;52.378;4.648;2023-03-03T02:33:57;2.92;;;1.40;;
46593;SDS011;35342;52.378;4.648;2023-03-03T02:39:02;1.95;;;1.13;;
46593;SDS011;35342;52.378;4.648;2023-03-03T02:44:12;1.45;;;0.77;;
46593;SDS011;35342;52.378;4.648;2023-03-03T02:46:44;6.13;;;1.50;;
46593;SDS011;35342;52.378;4.648;2023-03-03T02:49:13;2.00;;;1.27;;
46593;SDS011;35342;52.378;4.648;2023-03-03T02:51:47;3.53;;;1.20;;
46593;SDS011;35342;52.378;4.648;2023-03-03T02:54:13;4.05;;;1.25;;
46593;SDS011;35342;52.378;4.648;2023-03-03T02:56:42;1.73;;;1.17;;
46593;SDS011;35342;52.378;4.648;2023-03-03T02:59:08;1.10;;;1.00;;
46593;SDS011;35342;52.378;4.648;2023-03-03T03:01:35;1.80;;;1.10;;
46593;SDS011;35342;52.378;4.648;2023-03-03T03:04:09;4.40;;;1.30;;
46593;SDS011;35342;52.378;4.648;2023-03-03T03:06:41;7.05;;;1.15;;
46593;SDS011;35342;52.378;4.648;2023-03-03T03:09:08;3.85;;;1.10;;
46593;SDS011;35342;52.378;4.648;2023-03-03T03:11:35;3.28;;;1.08;;
46593;SDS011;35342;52.378;4.648;2023-03-03T03:14:03;2.50;;;1.08;;
46593;SDS011;35342;52.378;4.648;2023-03-03T03:16:30;1.65;;;0.80;;
46593;SDS011;35342;52.378;4.648;2023-03-03T03:18:57;3.35;;;0.98;;
46593;SDS011;35342;52.378;4.648;2023-03-03T03:21:24;2.55;;;0.82;;
46593;SDS011;35342;52.378;4.648;2023-03-03T03:23:50;2.72;;;0.80;;
46593;SDS011;35342;52.378;4.648;2023-03-03T03:26:16;1.95;;;0.70;;
46593;SDS011;35342;52.378;4.648;2023-03-03T03:28:44;1.08;;;0.90;;
46593;SDS011;35342;52.378;4.648;2023-03-03T03:31:14;1.65;;;0.95;;
46593;SDS011;35342;52.378;4.648;2023-03-03T03:33:41;5.25;;;1.27;;
46593;SDS011;35342;52.378;4.648;2023-03-03T03:36:08;2.53;;;0.95;;
46593;SDS011;35342;52.378;4.648;2023-03-03T03:38:34;2.80;;;1.08;;
46593;SDS011;35342;52.378;4.648;2023-03-03T03:41:01;7.82;;;1.20;;
46593;SDS011;35342;52.378;4.648;2023-03-03T03:43:28;2.42;;;2.22;;
46593;SDS011;35342;52.378;4.648;2023-03-03T03:45:54;3.33;;;1.17;;
46593;SDS011;35342;52.378;4.648;2023-03-03T03:48:20;1.67;;;1.13;;
46593;SDS011;35342;52.378;4.648;2023-03-03T03:50:46;2.05;;;1.10;;
46593;SDS011;35342;52.378;4.648;2023-03-03T03:53:13;2.10;;;0.90;;
46593;SDS011;35342;52.378;4.648;2023-03-03T03:55:40;3.25;;;1.50;;
46593;SDS011;35342;52.378;4.648;2023-03-03T03:58:06;7.13;;;1.10;;
46593;SDS011;35342;52.378;4.648;2023-03-03T04:00:32;2.38;;;1.42;;
46593;SDS011;35342;52.378;4.648;2023-03-03T04:02:58;4.20;;;1.75;;
46593;SDS011;35342;52.378;4.648;2023-03-03T04:05:24;2.08;;;1.33;;
46593;SDS011;35342;52.378;4.648;2023-03-03T04:07:50;2.08;;;0.85;;
46593;SDS011;35342;52.378;4.648;2023-03-03T04:10:15;2.53;;;1.08;;
46593;SDS011;35342;52.378;4.648;2023-03-03T04:12:42;1.65;;;0.98;;
46593;SDS011;35342;52.378;4.648;2023-03-03T04:15:09;1.70;;;0.90;;
46593;SDS011;35342;52.378;4.648;2023-03-03T04:17:37;2.25;;;1.15;;
46593;SDS011;35342;52.378;4.648;2023-03-03T04:20:04;1.35;;;0.68;;
46593;SDS011;35342;52.378;4.648;2023-03-03T04:22:32;4.32;;;1.45;;
46593;SDS011;35342;52.378;4.648;2023-03-03T04:25:00;4.93;;;1.13;;
46593;SDS011;35342;52.378;4.648;2023-03-03T04:27:32;2.92;;;1.25;;
46593;SDS011;35342;52.378;4.648;2023-03-03T04:30:00;3.28;;;0.95;;
46593;SDS011;35342;52.378;4.648;2023-03-03T04:32:28;1.88;;;1.30;;
46593;SDS011;35342;52.378;4.648;2023-03-03T04:34:54;2.58;;;1.23;;
46593;SDS011;35342;52.378;4.648;2023-03-03T04:37:20;7.60;;;1.42;;
46593;SDS011;35342;52.378;4.648;2023-03-03T04:39:46;4.82;;;1.38;;
46593;SDS011;35342;52.378;4.648;2023-03-03T04:42:12;2.20;;;1.13;;
46593;SDS011;35342;52.378;4.648;2023-03-03T04:44:38;2.10;;;1.17;;
46593;SDS011;35342;52.378;4.648;2023-03-03T04:47:04;2.90;;;1.00;;
46593;SDS011;35342;52.378;4.648;2023-03-03T04:49:30;3.97;;;1.15;;
46593;SDS011;35342;52.378;4.648;2023-03-03T04:51:55;3.13;;;1.02;;
46593;SDS011;35342;52.378;4.648;2023-03-03T04:54:21;3.92;;;1.30;;
46593;SDS011;35342;52.378;4.648;2023-03-03T04:56:47;2.25;;;1.00;;
46593;SDS011;35342;52.378;4.648;2023-03-03T04:59:13;2.85;;;1.23;;
46593;SDS011;35342;52.378;4.648;2023-03-03T05:01:39;3.17;;;0.82;;
46593;SDS011;35342;52.378;4.648;2023-03-03T05:04:06;3.60;;;1.25;;
46593;SDS011;35342;52.378;4.648;2023-03-03T05:06:32;2.33;;;1.63;;
46593;SDS011;35342;52.378;4.648;2023-03-03T05:08:58;3.05;;;1.58;;
46593;SDS011;35342;52.378;4.648;2023-03-03T05:11:23;1.60;;;1.30;;
46593;SDS011;35342;52.378;4.648;2023-03-03T05:13:49;2.95;;;1.40;;
46593;SDS011;35342;52.378;4.648;2023-03-03T05:16:17;2.78;;;1.50;;
46593;SDS011;35342;52.378;4.648;2023-03-03T05:18:43;2.63;;;1.60;;
46593;SDS011;35342;52.378;4.648;2023-03-03T05:21:10;1.48;;;1.27;;
46593;SDS011;35342;52.378;4.648;2023-03-03T05:23:36;5.47;;;1.70;;
46593;SDS011;35342;52.378;4.648;2023-03-03T05:26:02;4.00;;;1.30;;
46593;SDS011;35342;52.378;4.648;2023-03-03T05:28:28;4.57;;;1.30;;
46593;SDS011;35342;52.378;4.648;2023-03-03T05:30:54;3.85;;;1.60;;
46593;SDS011;35342;52.378;4.648;2023-03-03T05:33:20;4.22;;;1.92;;
46593;SDS011;35342;52.378;4.648;2023-03-03T05:35:45;12.75;;;2.20;;
46593;SDS011;35342;52.378;4.648;2023-03-03T05:38:11;5.93;;;1.85;;
46593;SDS011;35342;52.378;4.648;2023-03-03T05:40:37;2.90;;;1.52;;
46593;SDS011;35342;52.378;4.648;2023-03-03T05:43:03;8.30;;;1.42;;
46593;SDS011;35342;52.378;4.648;2023-03-03T05:45:29;8.23;;;1.63;;
46593;SDS011;35342;52.378;4.648;2023-03-03T05:47:55;2.05;;;1.55;;
46593;SDS011;35342;52.378;4.648;2023-03-03T05:50:21;2.30;;;1.40;;
46593;SDS011;35342;52.378;4.648;2023-03-03T05:52:48;1.88;;;1.52;;
46593;SDS011;35342;52.378;4.648;2023-03-03T05:55:16;2.78;;;1.50;;
46593;SDS011;35342;52.378;4.648;2023-03-03T05:57:42;6.70;;;2.05;;
46593;SDS011;35342;52.378;4.648;2023-03-03T06:00:08;6.30;;;2.20;;
46593;SDS011;35342;52.378;4.648;2023-03-03T06:02:36;3.97;;;1.63;;
46593;SDS011;35342;52.378;4.648;2023-03-03T06:05:01;6.43;;;1.60;;
46593;SDS011;35342;52.378;4.648;2023-03-03T06:07:27;4.82;;;1.90;;
46593;SDS011;35342;52.378;4.648;2023-03-03T06:09:53;3.13;;;1.60;;
46593;SDS011;35342;52.378;4.648;2023-03-03T06:12:19;3.55;;;1.30;;
46593;SDS011;35342;52.378;4.648;2023-03-03T06:14:45;7.38;;;1.73;;
46593;SDS011;35342;52.378;4.648;2023-03-03T06:17:11;1.65;;;1.40;;
46593;SDS011;35342;52.378;4.648;2023-03-03T06:19:37;5.90;;;2.40;;
46593;SDS011;35342;52.378;4.648;2023-03-03T06:22:03;4.80;;;1.60;;
46593;SDS011;35342;52.378;4.648;2023-03-03T06:24:29;6.30;;;2.15;;
46593;SDS011;35342;52.378;4.648;2023-03-03T06:26:58;4.80;;;1.50;;
46593;SDS011;35342;52.378;4.648;2023-03-03T06:29:25;2.70;;;1.42;;
46593;SDS011;35342;52.378;4.648;2023-03-03T06:31:52;6.90;;;2.03;;
46593;SDS011;35342;52.378;4.648;2023-03-03T06:34:18;2.30;;;1.40;;
46593;SDS011;35342;52.378;4.648;2023-03-03T06:36:44;2.35;;;1.40;;
46593;SDS011;35342;52.378;4.648;2023-03-03T06:39:10;2.25;;;1.42;;
46593;SDS011;35342;52.378;4.648;2023-03-03T06:41:36;2.58;;;1.33;;
46593;SDS011;35342;52.378;4.648;2023-03-03T06:44:03;2.05;;;1.67;;
46593;SDS011;35342;52.378;4.648;2023-03-03T06:46:29;4.68;;;1.67;;
46593;SDS011;35342;52.378;4.648;2023-03-03T06:48:55;10.18;;;1.40;;
46593;SDS011;35342;52.378;4.648;2023-03-03T06:53:55;10.97;;;1.90;;
46593;SDS011;35342;52.378;4.648;2023-03-03T06:56:24;3.00;;;2.63;;
46593;SDS011;35342;52.378;4.648;2023-03-03T06:58:52;3.05;;;1.75;;
46593;SDS011;35342;52.378;4.648;2023-03-03T07:01:22;2.25;;;1.50;;
46593;SDS011;35342;52.378;4.648;2023-03-03T07:03:48;4.85;;;2.42;;
46593;SDS011;35342;52.378;4.648;2023-03-03T07:06:17;4.10;;;1.52;;
46593;SDS011;35342;52.378;4.648;2023-03-03T07:08:45;7.55;;;1.77;;
46593;SDS011;35342;52.378;4.648;2023-03-03T07:11:11;4.70;;;1.80;;
46593;SDS011;35342;52.378;4.648;2023-03-03T07:13:48;8.32;;;2.40;;
46593;SDS011;35342;52.378;4.648;2023-03-03T07:16:16;7.38;;;2.22;;
46593;SDS011;35342;52.378;4.648;2023-03-03T07:21:29;4.78;;;1.73;;
46593;SDS011;35342;52.378;4.648;2023-03-03T07:24:00;3.83;;;1.85;;
46593;SDS011;35342;52.378;4.648;2023-03-03T07:26:42;4.00;;;2.28;;
46593;SDS011;35342;52.378;4.648;2023-03-03T07:31:51;6.65;;;4.00;;
46593;SDS011;35342;52.378;4.648;2023-03-03T07:37:17;5.63;;;3.70;;
46593;SDS011;35342;52.378;4.648;2023-03-03T07:42:58;6.30;;;3.22;;
46593;SDS011;35342;52.378;4.648;2023-03-03T07:45:30;11.73;;;3.67;;
46593;SDS011;35342;52.378;4.648;2023-03-03T07:48:05;5.88;;;3.40;;
46593;SDS011;35342;52.378;4.648;2023-03-03T07:50:36;6.70;;;2.92;;
46593;SDS011;35342;52.378;4.648;2023-03-03T07:53:10;4.47;;;2.40;;
46593;SDS011;35342;52.378;4.648;2023-03-03T07:55:41;3.63;;;2.47;;
46593;SDS011;35342;52.378;4.648;2023-03-03T08:05:48;5.28;;;2.45;;
46593;SDS011;35342;52.378;4.648;2023-03-03T08:08:33;9.10;;;1.98;;
46593;SDS011;35342;52.378;4.648;2023-03-03T08:11:06;6.25;;;1.85;;
46593;SDS011;35342;52.378;4.648;2023-03-03T08:18:34;2.20;;;0.85;;
46593;SDS011;35342;52.378;4.648;2023-03-03T08:21:09;2.10;;;0.75;;
46593;SDS011;35342;52.378;4.648;2023-03-03T08:23:39;1.98;;;1.00;;
46593;SDS011;35342;52.378;4.648;2023-03-03T08:26:05;4.07;;;1.73;;
46593;SDS011;35342;52.378;4.648;2023-03-03T08:28:31;3.05;;;1.15;;
46593;SDS011;35342;52.378;4.648;2023-03-03T08:30:58;3.83;;;1.55;;
46593;SDS011;35342;52.378;4.648;2023-03-03T08:33:24;5.10;;;1.17;;
46593;SDS011;35342;52.378;4.648;2023-03-03T08:35:51;3.80;;;1.25;;
46593;SDS011;35342;52.378;4.648;2023-03-03T08:38:18;2.65;;;1.00;;
46593;SDS011;35342;52.378;4.648;2023-03-03T08:40:45;4.30;;;1.10;;
46593;SDS011;35342;52.378;4.648;2023-03-03T08:43:12;2.70;;;0.95;;
46593;SDS011;35342;52.378;4.648;2023-03-03T08:45:45;2.17;;;0.87;;
46593;SDS011;35342;52.378;4.648;2023-03-03T08:48:16;2.75;;;1.30;;
46593;SDS011;35342;52.378;4.648;2023-03-03T08:50:44;5.13;;;1.10;;
46593;SDS011;35342;52.378;4.648;2023-03-03T08:53:11;1.30;;;0.75;;
46593;SDS011;35342;52.378;4.648;2023-03-03T08:55:39;2.65;;;0.93;;
46593;SDS011;35342;52.378;4.648;2023-03-03T08:58:06;4.30;;;0.90;;
46593;SDS011;35342;52.378;4.648;2023-03-03T09:00:34;3.05;;;1.00;;
46593;SDS011;35342;52.378;4.648;2023-03-03T09:03:00;3.33;;;1.98;;
46593;SDS011;35342;52.378;4.648;2023-03-03T09:05:26;5.53;;;0.88;;
46593;SDS011;35342;52.378;4.648;2023-03-03T09:07:52;2.42;;;0.85;;
46593;SDS011;35342;52.378;4.648;2023-03-03T09:10:21;4.13;;;1.10;;
46593;SDS011;35342;52.378;4.648;2023-03-03T09:12:55;2.17;;;1.27;;
46593;SDS011;35342;52.378;4.648;2023-03-03T09:15:43;3.70;;;1.33;;
46593;SDS011;35342;52.378;4.648;2023-03-03T09:18:12;4.15;;;2.45;;
46593;SDS011;35342;52.378;4.648;2023-03-03T09:20:59;5.28;;;1.00;;
46593;SDS011;35342;52.378;4.648;2023-03-03T09:23:40;5.90;;;1.45;;
46593;SDS011;35342;52.378;4.648;2023-03-03T09:26:28;5.75;;;1.35;;
46593;SDS011;35342;52.378;4.648;2023-03-03T09:36:53;3.38;;;0.85;;
46593;SDS011;35342;52.378;4.648;2023-03-03T09:50:28;3.30;;;0.60;;
46593;SDS011;35342;52.378;4.648;2023-03-03T10:10:18;2.08;;;0.68;;
46593;SDS011;35342;52.378;4.648;2023-03-03T10:13:14;3.47;;;0.73;;
46593;SDS011;35342;52.378;4.648;2023-03-03T10:22:15;1.35;;;0.73;;
46593;SDS011;35342;52.378;4.648;2023-03-03T10:25:25;3.58;;;1.58;;
46593;SDS011;35342;52.378;4.648;2023-03-03T10:31:50;2.13;;;1.00;;
46593;SDS011;35342;52.378;4.648;2023-03-03T10:34:25;4.35;;;0.65;;
46593;SDS011;35342;52.378;4.648;2023-03-03T10:40:32;3.33;;;1.45;;
46593;SDS011;35342;52.378;4.648;2023-03-03T10:52:14;3.85;;;1.00;;
46593;SDS011;35342;52.378;4.648;2023-03-03T11:06:24;1.95;;;0.88;;
46593;SDS011;35342;52.378;4.648;2023-03-03T11:09:43;3.28;;;0.73;;
46593;SDS011;35342;52.378;4.648;2023-03-03T11:12:40;0.75;;;0.70;;
46593;SDS011;35342;52.378;4.648;2023-03-03T11:33:25;6.57;;;1.52;;
46593;SDS011;35342;52.378;4.648;2023-03-03T11:39:09;3.25;;;1.10;;
46593;SDS011;35342;52.378;4.648;2023-03-03T11:44:51;0.73;;;0.70;;
46593;SDS011;35342;52.378;4.648;2023-03-03T11:47:45;2.15;;;0.90;;
46593;SDS011;35342;52.378;4.648;2023-03-03T11:50:30;3.67;;;0.68;;
46593;SDS011;35342;52.378;4.648;2023-03-03T11:56:05;8.95;;;1.67;;
46593;SDS011;35342;52.378;4.648;2023-03-03T12:02:00;4.40;;;0.80;;
46593;SDS011;35342;52.378;4.648;2023-03-03T12:04:51;1.10;;;0.80;;
46593;SDS011;35342;52.378;4.648;2023-03-03T12:11:14;4.75;;;1.13;;
46593;SDS011;35342;52.378;4.648;2023-03-03T12:19:14;0.82;;;0.60;;
46593;SDS011;35342;52.378;4.648;2023-03-03T12:28:27;1.80;;;0.70;;
46593;SDS011;35342;52.378;4.648;2023-03-03T12:37:03;2.13;;;1.25;;
46593;SDS011;35342;52.378;4.648;2023-03-03T12:39:49;3.35;;;0.80;;
46593;SDS011;35342;52.378;4.648;2023-03-03T12:46:14;1.10;;;0.65;;
46593;SDS011;35342;52.378;4.648;2023-03-03T12:48:53;4.20;;;1.50;;
46593;SDS011;35342;52.378;4.648;2023-03-03T13:08:25;4.60;;;1.27;;
46593;SDS011;35342;52.378;4.648;2023-03-03T13:14:30;2.30;;;0.88;;
46593;SDS011;35342;52.378;4.648;2023-03-03T13:17:16;1.63;;;0.50;;
46593;SDS011;35342;52.378;4.648;2023-03-03T13:25:30;1.40;;;0.60;;
46593;SDS011;35342;52.378;4.648;2023-03-03T13:31:40;2.58;;;0.88;;
46593;SDS011;35342;52.378;4.648;2023-03-03T13:33:53;2.08;;;0.90;;
46593;SDS011;35342;52.378;4.648;2023-03-03T13:36:40;2.47;;;0.70;;
46593;SDS011;35342;52.378;4.648;2023-03-03T13:39:25;4.55;;;1.05;;
46593;SDS011;35342;52.378;4.648;2023-03-03T13:48:48;4.68;;;0.70;;
46593;SDS011;35342;52.378;4.648;2023-03-03T13:54:20;2.33;;;0.70;;
46593;SDS011;35342;52.378;4.648;2023-03-03T14:11:59;2.78;;;1.08;;
46593;SDS011;35342;52.378;4.648;2023-03-03T14:20:01;1.10;;;0.65;;
46593;SDS011;35342;52.378;4.648;2023-03-03T14:25:58;1.80;;;0.70;;
46593;SDS011;35342;52.378;4.648;2023-03-03T14:28:28;4.53;;;1.10;;
46593;SDS011;35342;52.378;4.648;2023-03-03T14:31:13;3.65;;;0.80;;
46593;SDS011;35342;52.378;4.648;2023-03-03T14:33:59;3.63;;;0.70;;
46593;SDS011;35342;52.378;4.648;2023-03-03T14:36:38;3.47;;;1.15;;
46593;SDS011;35342;52.378;4.648;2023-03-03T14:41:58;4.15;;;0.90;;
46593;SDS011;35342;52.378;4.648;2023-03-03T14:47:21;2.40;;;0.88;;
46593;SDS011;35342;52.378;4.648;2023-03-03T14:49:51;2.15;;;0.95;;
46593;SDS011;35342;52.378;4.648;2023-03-03T14:52:28;8.30;;;1.30;;
46593;SDS011;35342;52.378;4.648;2023-03-03T14:54:58;2.97;;;1.00;;
46593;SDS011;35342;52.378;4.648;2023-03-03T15:00:25;3.58;;;0.98;;
46593;SDS011;35342;52.378;4.648;2023-03-03T15:05:51;10.43;;;1.27;;
46593;SDS011;35342;52.378;4.648;2023-03-03T15:08:40;6.45;;;1.30;;
46593;SDS011;35342;52.378;4.648;2023-03-03T15:13:52;4.90;;;2.03;;
46593;SDS011;35342;52.378;4.648;2023-03-03T15:16:30;5.22;;;1.15;;
46593;SDS011;35342;52.378;4.648;2023-03-03T15:24:44;7.97;;;1.88;;
46593;SDS011;35342;52.378;4.648;2023-03-03T15:27:33;4.25;;;1.20;;
46593;SDS011;35342;52.378;4.648;2023-03-03T15:30:29;4.03;;;1.15;;
46593;SDS011;35342;52.378;4.648;2023-03-03T15:35:49;6.72;;;1.83;;
46593;SDS011;35342;52.378;4.648;2023-03-03T15:38:25;5.97;;;1.25;;
46593;SDS011;35342;52.378;4.648;2023-03-03T15:41:06;8.18;;;1.73;;
46593;SDS011;35342;52.378;4.648;2023-03-03T15:43:48;3.10;;;1.20;;
46593;SDS011;35342;52.378;4.648;2023-03-03T15:53:02;5.40;;;1.50;;
46593;SDS011;35342;52.378;4.648;2023-03-03T16:04:04;7.55;;;1.38;;
46593;SDS011;35342;52.378;4.648;2023-03-03T16:07:01;10.38;;;2.17;;
46593;SDS011;35342;52.378;4.648;2023-03-03T16:09:52;8.32;;;2.60;;
46593;SDS011;35342;52.378;4.648;2023-03-03T16:27:27;9.80;;;3.17;;
46593;SDS011;35342;52.378;4.648;2023-03-03T16:30:31;7.97;;;2.08;;
46593;SDS011;35342;52.378;4.648;2023-03-03T16:38:43;7.70;;;2.58;;
46593;SDS011;35342;52.378;4.648;2023-03-03T16:41:20;10.98;;;2.08;;
46593;SDS011;35342;52.378;4.648;2023-03-03T16:47:32;11.52;;;2.00;;
46593;SDS011;35342;52.378;4.648;2023-03-03T17:02:23;9.40;;;2.45;;
46593;SDS011;35342;52.378;4.648;2023-03-03T17:05:12;16.27;;;3.28;;
46593;SDS011;35342;52.378;4.648;2023-03-03T17:11:48;13.50;;;2.78;;
46593;SDS011;35342;52.378;4.648;2023-03-03T17:20:45;16.08;;;3.53;;
46593;SDS011;35342;52.378;4.648;2023-03-03T17:26:45;8.43;;;2.35;;
46593;SDS011;35342;52.378;4.648;2023-03-03T17:35:32;8.85;;;2.33;;
46593;SDS011;35342;52.378;4.648;2023-03-03T17:41:33;6.05;;;1.67;;
46593;SDS011;35342;52.378;4.648;2023-03-03T17:47:08;7.60;;;1.60;;
46593;SDS011;35342;52.378;4.648;2023-03-03T18:01:48;15.27;;;3.50;;
46593;SDS011;35342;52.378;4.648;2023-03-03T18:22:42;18.02;;;3.25;;
46593;SDS011;35342;52.378;4.648;2023-03-03T18:25:10;10.05;;;2.17;;
46593;SDS011;35342;52.378;4.648;2023-03-03T18:30:27;23.27;;;4.95;;
46593;SDS011;35342;52.378;4.648;2023-03-03T18:33:30;13.15;;;2.28;;
46593;SDS011;35342;52.378;4.648;2023-03-03T18:39:03;10.15;;;2.17;;
46593;SDS011;35342;52.378;4.648;2023-03-03T18:41:31;13.63;;;3.05;;
46593;SDS011;35342;52.378;4.648;2023-03-03T18:44:27;18.67;;;3.92;;
46593;SDS011;35342;52.378;4.648;2023-03-03T18:46:54;21.83;;;4.00;;
46593;SDS011;35342;52.378;4.648;2023-03-03T18:52:39;13.73;;;3.97;;
46593;SDS011;35342;52.378;4.648;2023-03-03T18:55:52;16.27;;;3.47;;
46593;SDS011;35342;52.378;4.648;2023-03-03T18:58:27;10.95;;;2.97;;
46593;SDS011;35342;52.378;4.648;2023-03-03T19:01:13;20.35;;;3.00;;
46593;SDS011;35342;52.378;4.648;2023-03-03T19:04:16;10.77;;;2.47;;
46593;SDS011;35342;52.378;4.648;2023-03-03T19:09:18;17.83;;;2.80;;
46593;SDS011;35342;52.378;4.648;2023-03-03T19:12:11;17.35;;;3.13;;
46593;SDS011;35342;52.378;4.648;2023-03-03T19:14:47;6.80;;;2.45;;
46593;SDS011;35342;52.378;4.648;2023-03-03T19:20:04;15.60;;;3.67;;
46593;SDS011;35342;52.378;4.648;2023-03-03T19:25:37;14.32;;;2.90;;
46593;SDS011;35342;52.378;4.648;2023-03-03T19:30:57;23.25;;;3.88;;
46593;SDS011;35342;52.378;4.648;2023-03-03T19:36:40;13.40;;;3.45;;
46593;SDS011;35342;52.378;4.648;2023-03-03T19:46:17;14.75;;;2.97;;
46593;SDS011;35342;52.378;4.648;2023-03-03T19:58:01;14.63;;;2.25;;
46593;SDS011;35342;52.378;4.648;2023-03-03T20:00:56;17.13;;;3.45;;
46593;SDS011;35342;52.378;4.648;2023-03-03T20:09:53;19.50;;;3.78;;
46593;SDS011;35342;52.378;4.648;2023-03-03T20:27:43;11.55;;;2.72;;
46593;SDS011;35342;52.378;4.648;2023-03-03T20:33:27;7.40;;;1.88;;
46593;SDS011;35342;52.378;4.648;2023-03-03T20:36:24;11.88;;;2.58;;
46593;SDS011;35342;52.378;4.648;2023-03-03T20:52:58;11.13;;;2.40;;
46593;SDS011;35342;52.378;4.648;2023-03-03T20:58:38;14.88;;;2.03;;
46593;SDS011;35342;52.378;4.648;2023-03-03T21:06:55;18.17;;;2.88;;
46593;SDS011;35342;52.378;4.648;2023-03-03T21:09:29;10.07;;;1.67;;
46593;SDS011;35342;52.378;4.648;2023-03-03T21:12:02;13.13;;;2.60;;
46593;SDS011;35342;52.378;4.648;2023-03-03T21:14:59;12.63;;;2.78;;
46593;SDS011;35342;52.378;4.648;2023-03-03T21:19:59;12.65;;;2.25;;
46593;SDS011;35342;52.378;4.648;2023-03-03T21:22:46;14.75;;;2.50;;
46593;SDS011;35342;52.378;4.648;2023-03-03T21:25:58;13.30;;;2.63;;
46593;SDS011;35342;52.378;4.648;2023-03-03T21:31:15;10.40;;;2.25;;
46593;SDS011;35342;52.378;4.648;2023-03-03T21:36:12;11.55;;;2.90;;
46593;SDS011;35342;52.378;4.648;2023-03-03T21:39:18;10.40;;;2.35;;
46593;SDS011;35342;52.378;4.648;2023-03-03T21:42:07;12.18;;;2.75;;
46593;SDS011;35342;52.378;4.648;2023-03-03T21:47:26;13.45;;;2.47;;
46593;SDS011;35342;52.378;4.648;2023-03-03T21:49:53;17.60;;;3.97;;
46593;SDS011;35342;52.378;4.648;2023-03-03T21:52:19;12.95;;;2.78;;
46593;SDS011;35342;52.378;4.648;2023-03-03T21:54:47;10.18;;;2.38;;
46593;SDS011;35342;52.378;4.648;2023-03-03T21:57:15;13.25;;;2.15;;
46593;SDS011;35342;52.378;4.648;2023-03-03T21:59:41;10.38;;;3.28;;
46593;SDS011;35342;52.378;4.648;2023-03-03T22:02:07;17.23;;;2.78;;
46593;SDS011;35342;52.378;4.648;2023-03-03T22:04:34;13.60;;;2.13;;
46593;SDS011;35342;52.378;4.648;2023-03-03T22:07:02;21.45;;;2.85;;
46593;SDS011;35342;52.378;4.648;2023-03-03T22:09:29;7.82;;;2.03;;
46593;SDS011;35342;52.378;4.648;2023-03-03T22:11:55;7.13;;;2.60;;
46593;SDS011;35342;52.378;4.648;2023-03-03T22:14:20;14.75;;;2.03;;
46593;SDS011;35342;52.378;4.648;2023-03-03T22:16:46;7.45;;;1.70;;
46593;SDS011;35342;52.378;4.648;2023-03-03T22:19:12;9.27;;;2.00;;
46593;SDS011;35342;52.378;4.648;2023-03-03T22:21:38;14.52;;;2.00;;
46593;SDS011;35342;52.378;4.648;2023-03-03T22:24:04;13.55;;;2.60;;
46593;SDS011;35342;52.378;4.648;2023-03-03T22:26:31;20.48;;;2.00;;
46593;SDS011;35342;52.378;4.648;2023-03-03T22:28:57;13.85;;;2.78;;
46593;SDS011;35342;52.378;4.648;2023-03-03T22:31:24;8.07;;;3.63;;
46593;SDS011;35342;52.378;4.648;2023-03-03T22:33:49;15.93;;;2.72;;
46593;SDS011;35342;52.378;4.648;2023-03-03T22:36:15;10.98;;;1.80;;
46593;SDS011;35342;52.378;4.648;2023-03-03T22:38:43;12.07;;;2.10;;
46593;SDS011;35342;52.378;4.648;2023-03-03T22:41:10;18.45;;;3.88;;
46593;SDS011;35342;52.378;4.648;2023-03-03T22:43:36;25.17;;;3.42;;
46593;SDS011;35342;52.378;4.648;2023-03-03T22:46:02;13.85;;;2.33;;
46593;SDS011;35342;52.378;4.648;2023-03-03T22:48:29;13.20;;;3.55;;
46593;SDS011;35342;52.378;4.648;2023-03-03T22:50:56;13.43;;;2.38;;
46593;SDS011;35342;52.378;4.648;2023-03-03T22:53:22;17.48;;;2.20;;
46593;SDS011;35342;52.378;4.648;2023-03-03T22:55:49;12.02;;;2.95;;
46593;SDS011;35342;52.378;4.648;2023-03-03T22:58:15;11.57;;;2.42;;
46593;SDS011;35342;52.378;4.648;2023-03-03T23:00:43;13.07;;;2.58;;